createdAt,value
2024-01-28T00:01:04.906Z,29.38
2024-01-28T00:03:34.230Z,19.73
2024-01-28T00:06:02.282Z,22.23
2024-01-28T00:08:30.635Z,23.20
2024-01-28T00:10:57.871Z,21.20
2024-01-28T00:13:26.227Z,21.77
2024-01-28T00:15:54.317Z,31.70
2024-01-28T00:18:22.572Z,23.58
2024-01-28T00:20:49.888Z,24.02
2024-01-28T00:23:17.018Z,24.65
2024-01-28T00:25:44.388Z,22.38
2024-01-28T00:28:11.829Z,31.48
2024-01-28T00:30:39.569Z,32.28
2024-01-28T00:33:06.951Z,24.83
2024-01-28T00:35:35.333Z,30.73
2024-01-28T00:38:04.258Z,27.40
2024-01-28T00:40:31.937Z,34.33
2024-01-28T00:43:01.020Z,30.33
2024-01-28T00:45:28.537Z,30.38
2024-01-28T00:47:56.068Z,25.80
2024-01-28T00:50:23.654Z,31.30
2024-01-28T00:52:50.886Z,28.83
2024-01-28T00:55:18.320Z,28.60
2024-01-28T00:57:45.446Z,26.67
2024-01-28T01:00:13.213Z,26.60
2024-01-28T01:02:40.384Z,31.40
2024-01-28T01:05:07.888Z,23.58
2024-01-28T01:07:35.510Z,33.78
2024-01-28T01:10:03.129Z,30.08
2024-01-28T01:12:31.064Z,36.63
2024-01-28T01:15:00.745Z,34.67
2024-01-28T01:17:29.425Z,30.60
2024-01-28T01:19:57.016Z,23.48
2024-01-28T01:22:24.430Z,26.90
2024-01-28T01:24:51.843Z,28.10
2024-01-28T01:27:19.450Z,32.25
2024-01-28T01:29:46.854Z,33.97
2024-01-28T01:32:14.504Z,27.92
2024-01-28T01:34:42.032Z,29.63
2024-01-28T01:37:10.334Z,25.90
2024-01-28T01:39:37.418Z,24.63
2024-01-28T01:42:04.957Z,31.13
2024-01-28T01:44:33.488Z,27.85
2024-01-28T01:47:00.822Z,31.35
2024-01-28T01:49:29.212Z,40.08
2024-01-28T01:51:56.893Z,37.72
2024-01-28T01:54:24.325Z,31.45
2024-01-28T01:56:52.842Z,36.80
2024-01-28T01:59:21.818Z,27.98
2024-01-28T02:01:49.221Z,44.88
2024-01-28T02:06:53.094Z,25.92
2024-01-28T02:09:20.307Z,32.10
2024-01-28T02:11:48.043Z,37.60
2024-01-28T02:14:25.730Z,32.15
2024-01-28T02:16:53.066Z,38.75
2024-01-28T02:19:21.063Z,33.17
2024-01-28T02:21:48.463Z,29.67
2024-01-28T02:24:16.831Z,29.27
2024-01-28T02:26:44.179Z,37.25
2024-01-28T02:29:11.754Z,31.88
2024-01-28T02:31:39.194Z,28.10
2024-01-28T02:34:06.797Z,36.85
2024-01-28T02:36:34.245Z,31.67
2024-01-28T02:39:01.474Z,35.53
2024-01-28T02:41:28.672Z,30.23
2024-01-28T02:43:56.214Z,30.70
2024-01-28T02:46:23.469Z,31.13
2024-01-28T02:48:50.766Z,44.50
2024-01-28T02:51:20.676Z,33.15
2024-01-28T02:53:48.053Z,35.35
2024-01-28T02:56:15.321Z,34.72
2024-01-28T02:58:42.817Z,32.22
2024-01-28T03:01:10.166Z,33.80
2024-01-28T03:03:38.314Z,35.90
2024-01-28T03:06:06.002Z,33.38
2024-01-28T03:08:33.392Z,39.55
2024-01-28T03:11:00.800Z,39.22
2024-01-28T03:13:28.136Z,40.20
2024-01-28T03:15:56.516Z,39.90
2024-01-28T03:18:24.013Z,46.47
2024-01-28T03:20:51.469Z,47.25
2024-01-28T03:23:20.912Z,52.50
2024-01-28T03:25:49.401Z,47.90
2024-01-28T03:28:16.676Z,49.88
2024-01-28T03:30:44.182Z,37.15
2024-01-28T03:33:11.678Z,36.83
2024-01-28T03:35:39.432Z,42.17
2024-01-28T03:38:07.989Z,35.95
2024-01-28T03:40:35.714Z,40.45
2024-01-28T03:43:02.990Z,39.28
2024-01-28T03:45:30.170Z,32.35
2024-01-28T03:47:57.609Z,44.35
2024-01-28T03:50:26.190Z,43.05
2024-01-28T03:52:54.857Z,39.42
2024-01-28T03:55:21.893Z,29.58
2024-01-28T03:57:49.079Z,35.95
2024-01-28T04:00:20.056Z,45.03
2024-01-28T04:02:48.839Z,34.53
2024-01-28T04:05:15.978Z,35.28
2024-01-28T04:07:43.172Z,35.80
2024-01-28T04:10:10.391Z,46.00
2024-01-28T04:12:37.806Z,40.92
2024-01-28T04:15:05.797Z,40.83
2024-01-28T04:17:33.095Z,45.50
2024-01-28T04:20:00.770Z,38.50
2024-01-28T04:22:28.116Z,35.40
2024-01-28T04:24:55.414Z,40.80
2024-01-28T04:27:22.777Z,40.30
2024-01-28T04:29:49.979Z,31.40
2024-01-28T04:32:17.198Z,37.10
2024-01-28T04:34:45.228Z,39.72
2024-01-28T04:37:12.678Z,41.08
2024-01-28T04:39:39.905Z,32.28
2024-01-28T04:42:07.529Z,39.13
2024-01-28T04:44:34.925Z,34.88
2024-01-28T04:47:03.466Z,38.00
2024-01-28T04:49:31.139Z,34.20
2024-01-28T04:51:59.293Z,40.15
2024-01-28T04:54:26.557Z,35.47
2024-01-28T04:56:53.852Z,42.58
2024-01-28T04:59:21.064Z,41.10
2024-01-28T05:01:48.228Z,35.75
2024-01-28T05:04:15.621Z,35.50
2024-01-28T05:06:42.968Z,43.63
2024-01-28T05:09:11.960Z,39.03
2024-01-28T05:11:39.685Z,38.72
2024-01-28T05:14:06.955Z,40.35
2024-01-28T05:16:35.140Z,48.67
2024-01-28T05:19:03.751Z,30.65
2024-01-28T05:21:31.317Z,37.83
2024-01-28T05:23:58.557Z,37.55
2024-01-28T05:26:25.808Z,41.38
2024-01-28T05:28:53.183Z,39.08
2024-01-28T05:31:20.356Z,39.65
2024-01-28T05:33:49.083Z,36.40
2024-01-28T05:36:17.675Z,27.55
2024-01-28T05:38:45.815Z,30.30
2024-01-28T05:41:13.181Z,42.08
2024-01-28T05:43:40.423Z,38.35
2024-01-28T05:46:07.715Z,39.90
2024-01-28T05:48:35.511Z,48.15
2024-01-28T05:51:03.551Z,53.13
2024-01-28T05:53:30.733Z,38.10
2024-01-28T05:55:58.041Z,43.97
2024-01-28T05:58:25.440Z,38.20
2024-01-28T06:00:53.321Z,38.33
2024-01-28T06:03:20.788Z,37.60
2024-01-28T06:05:48.181Z,40.67
2024-01-28T06:08:17.288Z,41.40
2024-01-28T06:10:45.058Z,31.67
2024-01-28T06:13:12.257Z,36.42
2024-01-28T06:15:39.774Z,36.30
2024-01-28T06:18:07.145Z,39.30
2024-01-28T06:20:37.047Z,29.65
2024-01-28T06:23:05.428Z,36.08
2024-01-28T06:25:32.749Z,41.92
2024-01-28T06:28:00.081Z,34.42
2024-01-28T06:30:29.255Z,36.33
2024-01-28T06:32:57.063Z,32.03
2024-01-28T06:35:24.253Z,27.17
2024-01-28T06:37:51.692Z,24.40
2024-01-28T06:40:19.040Z,32.53
2024-01-28T06:42:46.896Z,33.03
2024-01-28T06:45:14.479Z,30.88
2024-01-28T06:47:41.822Z,28.05
2024-01-28T06:50:09.856Z,35.45
2024-01-28T06:52:37.211Z,30.05
2024-01-28T06:55:08.219Z,32.38
2024-01-28T06:57:35.838Z,21.50
2024-01-28T07:00:06.188Z,29.27
2024-01-28T07:02:33.638Z,25.20
2024-01-28T07:05:01.165Z,33.28
2024-01-28T07:07:28.584Z,20.92
2024-01-28T07:09:55.923Z,34.67
2024-01-28T07:12:23.697Z,21.80
2024-01-28T07:14:51.004Z,27.85
2024-01-28T07:17:18.293Z,32.00
2024-01-28T07:19:45.713Z,32.95
2024-01-28T07:22:13.406Z,26.90
2024-01-28T07:24:40.972Z,27.40
2024-01-28T07:27:08.397Z,25.65
2024-01-28T07:29:35.780Z,27.48
2024-01-28T07:32:03.072Z,33.63
2024-01-28T07:34:30.728Z,25.23
2024-01-28T07:36:59.115Z,19.02
2024-01-28T07:39:27.841Z,25.90
2024-01-28T07:41:55.301Z,29.13
2024-01-28T07:44:22.603Z,31.15
2024-01-28T07:46:49.691Z,22.77
2024-01-28T07:49:17.968Z,40.90
2024-01-28T07:51:45.211Z,31.00
2024-01-28T07:54:12.959Z,29.15
2024-01-28T07:56:39.994Z,30.00
2024-01-28T07:59:07.232Z,27.40
2024-01-28T08:01:34.225Z,29.35
2024-01-28T08:04:01.574Z,26.05
2024-01-28T08:06:28.926Z,24.67
2024-01-28T08:08:56.246Z,17.50
2024-01-28T08:11:23.438Z,25.65
2024-01-28T08:13:50.550Z,24.60
2024-01-28T08:16:19.873Z,30.67
2024-01-28T08:18:48.164Z,28.98
2024-01-28T08:21:15.342Z,27.52
2024-01-28T08:23:42.536Z,31.75
2024-01-28T08:26:10.044Z,25.15
2024-01-28T08:28:37.098Z,29.83
2024-01-28T08:31:06.774Z,21.02
2024-01-28T08:33:34.038Z,17.77
2024-01-28T08:36:01.230Z,18.27
2024-01-28T08:38:30.252Z,20.73
2024-01-28T08:40:57.572Z,33.50
2024-01-28T08:43:24.708Z,21.67
2024-01-28T08:45:51.881Z,29.38
2024-01-28T08:48:19.169Z,21.48
2024-01-28T08:50:47.210Z,25.88
2024-01-28T08:53:14.317Z,22.50
2024-01-28T08:55:41.334Z,16.00
2024-01-28T08:58:08.384Z,29.20
2024-01-28T09:00:35.480Z,26.15
2024-01-28T09:03:03.219Z,22.67
2024-01-28T09:05:30.981Z,19.98
2024-01-28T09:07:58.126Z,17.38
2024-01-28T09:10:25.275Z,17.42
2024-01-28T09:12:52.326Z,20.88
2024-01-28T09:15:19.533Z,20.77
2024-01-28T09:17:46.665Z,18.25
2024-01-28T09:20:14.223Z,16.85
2024-01-28T09:22:41.487Z,20.23
2024-01-28T09:25:08.790Z,19.40
2024-01-28T09:27:35.954Z,17.02
2024-01-28T09:30:03.520Z,18.63
2024-01-28T09:32:31.175Z,23.00
2024-01-28T09:34:58.528Z,23.02
2024-01-28T09:37:25.742Z,12.43
2024-01-28T09:39:52.736Z,17.15
2024-01-28T09:42:57.937Z,16.25
2024-01-28T09:45:27.525Z,17.08
2024-01-28T09:47:55.983Z,18.83
2024-01-28T09:50:23.147Z,12.52
2024-01-28T09:52:50.665Z,15.00
2024-01-28T09:55:17.811Z,24.70
2024-01-28T09:57:45.165Z,20.35
2024-01-28T10:00:13.398Z,13.77
2024-01-28T10:02:44.696Z,16.67
2024-01-28T10:05:12.735Z,15.18
2024-01-28T10:07:44.403Z,23.23
2024-01-28T10:10:14.470Z,9.55
2024-01-28T10:12:41.692Z,11.60
2024-01-28T10:15:19.683Z,22.65
2024-01-28T10:17:51.292Z,10.43
2024-01-28T10:20:20.735Z,10.35
2024-01-28T10:22:48.536Z,16.70
2024-01-28T10:25:17.589Z,8.90
2024-01-28T10:27:49.367Z,16.70
2024-01-28T10:30:18.196Z,12.50
2024-01-28T10:32:45.657Z,10.63
2024-01-28T10:35:14.314Z,8.85
2024-01-28T10:37:42.266Z,9.48
2024-01-28T10:40:10.309Z,14.85
2024-01-28T10:42:42.050Z,10.57
2024-01-28T10:45:14.421Z,11.57
2024-01-28T10:47:45.621Z,15.20
2024-01-28T10:50:15.657Z,6.50
2024-01-28T10:52:44.702Z,8.10
2024-01-28T10:55:12.490Z,10.00
2024-01-28T10:57:41.226Z,13.00
2024-01-28T11:00:11.722Z,12.68
2024-01-28T11:02:43.858Z,12.82
2024-01-28T11:05:12.350Z,9.07
2024-01-28T11:07:43.741Z,13.70
2024-01-28T11:10:12.397Z,10.80
2024-01-28T11:12:40.431Z,6.80
2024-01-28T11:15:14.196Z,8.45
2024-01-28T11:17:41.643Z,10.20
2024-01-28T11:20:10.580Z,12.88
2024-01-28T11:22:51.670Z,15.20
2024-01-28T11:25:23.973Z,11.95
2024-01-28T11:27:52.693Z,10.88
2024-01-28T11:30:26.370Z,13.27
2024-01-28T11:33:18.261Z,12.48
2024-01-28T11:35:46.501Z,7.43
2024-01-28T11:38:25.103Z,8.85
2024-01-28T11:40:58.795Z,12.27
2024-01-28T11:43:26.260Z,10.65
2024-01-28T11:45:53.993Z,11.82
2024-01-28T11:48:22.833Z,12.18
2024-01-28T11:50:50.215Z,10.25
2024-01-28T11:53:17.246Z,10.43
2024-01-28T11:55:44.255Z,9.27
2024-01-28T11:58:11.348Z,8.60
2024-01-28T12:00:38.650Z,8.55
2024-01-28T12:03:06.404Z,10.85
2024-01-28T12:05:33.932Z,7.97
2024-01-28T12:08:03.843Z,8.45
2024-01-28T12:10:33.108Z,8.75
2024-01-28T12:13:00.572Z,11.88
2024-01-28T12:15:27.803Z,7.93
2024-01-28T12:17:54.952Z,13.55
2024-01-28T12:20:24.088Z,10.07
2024-01-28T12:22:51.536Z,10.70
2024-01-28T12:25:23.410Z,9.90
2024-01-28T12:27:52.809Z,12.63
2024-01-28T12:30:20.847Z,11.88
2024-01-28T12:32:50.068Z,12.32
2024-01-28T12:35:17.584Z,15.70
2024-01-28T12:37:45.017Z,9.82
2024-01-28T12:40:13.442Z,10.95
2024-01-28T12:42:42.144Z,11.55
2024-01-28T12:45:10.845Z,11.20
2024-01-28T12:47:38.570Z,11.20
2024-01-28T12:50:07.589Z,9.85
2024-01-28T12:52:35.549Z,11.02
2024-01-28T12:55:05.314Z,10.93
2024-01-28T12:57:32.547Z,15.98
2024-01-28T13:00:00.038Z,7.72
2024-01-28T13:02:29.499Z,9.02
2024-01-28T13:04:58.197Z,7.40
2024-01-28T13:07:25.781Z,7.75
2024-01-28T13:09:53.037Z,6.63
2024-01-28T13:12:21.114Z,9.70
2024-01-28T13:14:49.152Z,6.55
2024-01-28T13:17:16.243Z,6.53
2024-01-28T13:19:44.023Z,9.57
2024-01-28T13:22:11.272Z,9.10
2024-01-28T13:24:38.479Z,9.35
2024-01-28T13:27:06.171Z,12.40
2024-01-28T13:29:36.856Z,10.27
2024-01-28T13:32:05.590Z,7.88
2024-01-28T13:34:34.263Z,7.10
2024-01-28T13:37:03.660Z,7.18
2024-01-28T13:39:31.544Z,8.80
2024-01-28T13:41:59.266Z,8.38
2024-01-28T13:44:26.855Z,8.40
2024-01-28T13:46:55.218Z,6.45
2024-01-28T13:49:24.892Z,8.77
2024-01-28T13:51:52.598Z,9.48
2024-01-28T13:54:20.439Z,8.45
2024-01-28T13:56:48.305Z,7.93
2024-01-28T13:59:17.948Z,7.53
2024-01-28T14:01:45.815Z,6.18
2024-01-28T14:04:14.992Z,12.50
2024-01-28T14:06:42.751Z,5.78
2024-01-28T14:09:10.625Z,10.20
2024-01-28T14:11:38.454Z,7.32
2024-01-28T14:14:06.645Z,8.35
2024-01-28T14:16:34.555Z,5.40
2024-01-28T14:19:02.907Z,5.82
2024-01-28T14:21:30.972Z,11.80
2024-01-28T14:23:58.438Z,9.23
2024-01-28T14:26:25.769Z,13.75
2024-01-28T14:28:55.531Z,9.75
2024-01-28T14:31:24.088Z,8.40
2024-01-28T14:33:53.264Z,7.95
2024-01-28T14:36:21.205Z,6.57
2024-01-28T14:38:49.537Z,8.00
2024-01-28T14:41:17.642Z,6.15
2024-01-28T14:43:45.648Z,7.57
2024-01-28T14:46:13.597Z,6.72
2024-01-28T14:48:41.936Z,10.65
2024-01-28T14:51:09.288Z,10.38
2024-01-28T14:53:37.495Z,5.38
2024-01-28T14:56:05.418Z,7.25
2024-01-28T14:58:33.014Z,10.50
2024-01-28T15:01:00.470Z,12.85
2024-01-28T15:03:27.862Z,7.65
2024-01-28T15:05:56.242Z,5.30
2024-01-28T15:08:24.777Z,8.32
2024-01-28T15:10:52.638Z,14.35
2024-01-28T15:13:19.790Z,16.83
2024-01-28T15:15:47.492Z,7.15
2024-01-28T15:18:14.837Z,6.00
2024-01-28T15:20:42.030Z,10.23
2024-01-28T15:23:10.697Z,6.53
2024-01-28T15:25:38.874Z,12.23
2024-01-28T15:28:07.867Z,8.48
2024-01-28T15:30:35.791Z,13.98
2024-01-28T15:33:03.509Z,7.13
2024-01-28T15:35:31.485Z,12.18
2024-01-28T15:37:59.333Z,9.00
2024-01-28T15:40:27.230Z,9.32
2024-01-28T15:42:55.196Z,11.77
2024-01-28T15:45:23.372Z,15.07
2024-01-28T15:47:51.497Z,12.40
2024-01-28T15:50:19.326Z,9.90
2024-01-28T15:52:47.221Z,6.38
2024-01-28T15:55:22.285Z,5.43
2024-01-28T15:57:54.137Z,4.38
2024-01-28T16:00:21.483Z,6.30
2024-01-28T16:02:48.733Z,5.60
2024-01-28T16:05:16.540Z,10.15
2024-01-28T16:07:46.374Z,11.25
2024-01-28T16:10:13.936Z,7.07
2024-01-28T16:12:41.568Z,11.60
2024-01-28T16:15:11.880Z,6.90
2024-01-28T16:17:39.147Z,11.20
2024-01-28T16:20:06.736Z,9.50
2024-01-28T16:22:34.546Z,7.88
2024-01-28T16:25:03.452Z,12.50
2024-01-28T16:27:30.850Z,13.50
2024-01-28T16:29:58.204Z,21.63
2024-01-28T16:32:25.525Z,20.02
2024-01-28T16:34:53.257Z,23.38
2024-01-28T16:37:21.014Z,19.30
2024-01-28T16:39:49.644Z,25.75
2024-01-28T16:42:17.233Z,23.02
2024-01-28T16:44:44.365Z,21.77
2024-01-28T16:47:15.192Z,19.58
2024-01-28T16:49:42.385Z,15.23
2024-01-28T16:52:09.498Z,14.45
2024-01-28T16:54:37.053Z,13.82
2024-01-28T16:57:04.468Z,11.75
2024-01-28T16:59:31.633Z,11.57
2024-01-28T17:01:58.780Z,8.77
2024-01-28T17:04:25.836Z,8.65
2024-01-28T17:06:53.268Z,10.50
2024-01-28T17:09:20.673Z,17.10
2024-01-28T17:11:47.775Z,9.45
2024-01-28T17:14:17.380Z,9.25
2024-01-28T17:16:44.844Z,8.52
2024-01-28T17:19:12.155Z,11.82
2024-01-28T17:21:39.320Z,14.18
2024-01-28T17:24:06.866Z,11.68
2024-01-28T17:26:34.084Z,9.52
2024-01-28T17:29:01.301Z,11.27
2024-01-28T17:31:32.611Z,9.48
2024-01-28T17:34:00.377Z,14.40
2024-01-28T17:36:28.442Z,9.20
2024-01-28T17:38:56.313Z,8.52
2024-01-28T17:41:23.990Z,10.13
2024-01-28T17:43:52.049Z,7.10
2024-01-28T17:46:19.326Z,14.57
2024-01-28T17:48:46.612Z,6.57
2024-01-28T17:51:13.885Z,8.15
2024-01-28T17:53:42.490Z,9.00
2024-01-28T17:56:15.035Z,8.55
2024-01-28T17:58:42.253Z,6.43
2024-01-28T18:01:09.792Z,6.78
2024-01-28T18:03:39.128Z,9.93
2024-01-28T18:06:07.334Z,12.32
2024-01-28T18:08:34.650Z,6.88
2024-01-28T18:11:04.589Z,6.90
2024-01-28T18:13:31.897Z,8.65
2024-01-28T18:15:59.602Z,7.28
2024-01-28T18:18:26.841Z,9.10
2024-01-28T18:20:53.911Z,8.15
2024-01-28T18:23:21.885Z,8.38
2024-01-28T18:25:49.255Z,8.57
2024-01-28T18:28:16.359Z,10.13
2024-01-28T18:30:43.565Z,6.43
2024-01-28T18:33:10.980Z,7.15
2024-01-28T18:35:38.073Z,6.20
2024-01-28T18:38:05.134Z,12.02
2024-01-28T18:40:32.340Z,11.45
2024-01-28T18:42:59.600Z,14.32
2024-01-28T18:45:26.738Z,15.18
2024-01-28T18:47:53.961Z,10.48
2024-01-28T18:50:21.178Z,10.38
2024-01-28T18:52:48.301Z,17.52
2024-01-28T18:55:15.445Z,8.65
2024-01-28T18:57:42.697Z,10.27
2024-01-28T19:00:14.713Z,9.07
2024-01-28T19:02:42.401Z,9.43
2024-01-28T19:05:09.916Z,6.75
2024-01-28T19:07:38.606Z,9.18
2024-01-28T19:10:06.624Z,7.88
2024-01-28T19:15:32.073Z,10.43
2024-01-28T19:17:59.623Z,9.02
2024-01-28T19:20:27.087Z,10.13
2024-01-28T19:22:55.166Z,6.82
2024-01-28T19:25:23.103Z,7.45
2024-01-28T19:27:51.583Z,9.98
2024-01-28T19:30:19.048Z,8.73
2024-01-28T19:32:46.778Z,9.13
2024-01-28T19:35:13.899Z,9.23
2024-01-28T19:37:41.016Z,10.38
2024-01-28T19:40:10.591Z,5.00
2024-01-28T19:42:37.968Z,4.93
2024-01-28T19:45:05.601Z,7.05
2024-01-28T19:47:32.830Z,12.00
2024-01-28T19:50:00.526Z,8.48
2024-01-28T19:52:27.734Z,6.82
2024-01-28T19:54:54.931Z,6.85
2024-01-28T19:57:22.428Z,7.80
2024-01-28T19:59:49.512Z,8.85
2024-01-28T20:02:16.946Z,5.25
2024-01-28T20:04:44.368Z,10.88
2024-01-28T20:07:15.614Z,13.65
2024-01-28T20:09:44.007Z,5.43
2024-01-28T20:12:11.290Z,7.07
2024-01-28T20:14:38.999Z,5.88
2024-01-28T20:17:08.088Z,6.10
2024-01-28T20:19:35.615Z,5.53
2024-01-28T20:22:03.091Z,5.05
2024-01-28T20:24:31.129Z,7.78
2024-01-28T20:26:58.786Z,5.43
2024-01-28T20:29:25.949Z,7.13
2024-01-28T20:31:53.175Z,7.13
2024-01-28T20:34:21.124Z,6.20
2024-01-28T20:36:49.588Z,9.05
2024-01-28T20:39:16.864Z,6.78
2024-01-28T20:41:46.490Z,6.15
2024-01-28T20:44:13.554Z,5.65
2024-01-28T20:46:46.015Z,10.45
2024-01-28T20:49:13.322Z,5.78
2024-01-28T20:51:40.616Z,4.13
2024-01-28T20:54:07.754Z,8.60
2024-01-28T20:56:34.900Z,5.28
2024-01-28T20:59:02.557Z,10.38
2024-01-28T21:01:29.877Z,7.15
2024-01-28T21:03:57.712Z,7.78
2024-01-28T21:06:25.048Z,5.95
2024-01-28T21:08:52.328Z,9.38
2024-01-28T21:11:20.194Z,6.82
2024-01-28T21:13:47.358Z,5.82
2024-01-28T21:16:15.028Z,5.15
2024-01-28T21:18:42.429Z,7.57
2024-01-28T21:21:09.862Z,4.85
2024-01-28T21:23:37.176Z,5.32
2024-01-28T21:26:04.639Z,5.82
2024-01-28T21:28:32.370Z,5.40
2024-01-28T21:30:59.854Z,6.85
2024-01-28T21:33:27.380Z,5.03
2024-01-28T21:35:55.001Z,6.93
2024-01-28T21:38:22.406Z,4.32
2024-01-28T21:40:49.515Z,5.45
2024-01-28T21:43:16.668Z,4.47
2024-01-28T21:45:43.763Z,8.85
2024-01-28T21:48:11.098Z,11.32
2024-01-28T21:50:38.266Z,4.88
2024-01-28T21:53:06.725Z,9.10
2024-01-28T21:55:34.113Z,6.00
2024-01-28T21:58:02.308Z,7.63
2024-01-28T22:00:31.382Z,8.63
2024-01-28T22:02:58.678Z,10.82
2024-01-28T22:05:26.347Z,4.63
2024-01-28T22:07:53.778Z,6.93
2024-01-28T22:10:21.189Z,5.40
2024-01-28T22:12:48.490Z,6.68
2024-01-28T22:15:15.894Z,7.18
2024-01-28T22:17:43.128Z,4.38
2024-01-28T22:20:11.007Z,5.00
2024-01-28T22:22:38.393Z,4.82
2024-01-28T22:25:08.316Z,6.53
2024-01-28T22:27:35.752Z,5.32
2024-01-28T22:30:04.604Z,5.95
2024-01-28T22:32:32.205Z,3.72
2024-01-28T22:34:59.617Z,8.55
2024-01-28T22:37:27.031Z,5.25
2024-01-28T22:39:54.381Z,6.72
2024-01-28T22:42:21.546Z,6.07
2024-01-28T22:44:48.823Z,6.20
2024-01-28T22:47:16.256Z,8.15
2024-01-28T22:49:43.619Z,5.53
2024-01-28T22:52:11.044Z,3.45
2024-01-28T22:54:38.609Z,4.70
2024-01-28T22:57:06.155Z,7.00
2024-01-28T22:59:35.972Z,6.95
2024-01-28T23:02:04.290Z,3.92
2024-01-28T23:04:31.546Z,5.22
2024-01-28T23:06:58.980Z,7.47
2024-01-28T23:09:27.058Z,8.05
2024-01-28T23:11:54.155Z,4.70
2024-01-28T23:14:21.230Z,5.85
2024-01-28T23:16:49.872Z,5.15
2024-01-28T23:19:17.559Z,8.32
2024-01-28T23:21:44.992Z,7.82
2024-01-28T23:24:12.008Z,4.55
2024-01-28T23:26:41.297Z,3.08
2024-01-28T23:29:09.650Z,8.75
2024-01-28T23:31:36.813Z,6.13
2024-01-28T23:34:05.369Z,4.13
2024-01-28T23:36:33.579Z,3.95
2024-01-28T23:39:02.154Z,4.30
2024-01-28T23:41:29.883Z,5.18
2024-01-28T23:43:57.649Z,2.95
2024-01-28T23:46:25.746Z,5.57
2024-01-28T23:48:53.837Z,4.47
2024-01-28T23:51:21.731Z,3.30
2024-01-28T23:53:49.674Z,4.85
2024-01-28T23:56:17.862Z,3.70
2024-01-28T23:58:45.394Z,4.03
